Time;durP1;ratioP1;P1;durP2;ratioP2;P2;SDS_P1;SDS_P2;PMS_P1;PMS_P2;Temp;Humidity;BMP_temperature;BMP_pressure;BME280_temperature;BME280_humidity;BME280_pressure;Samples;Min_cycle;Max_cycle;Signal;HPM_P1;HPM_P2
2021/12/18 00:07:36;;;;;;;8.67;5.83;;;;;;;;;;21002895;28;20398;-57
2021/12/18 00:17:37;;;;;;;9.38;6.35;;;;;;;;;;21002056;28;20057;-57
2021/12/18 00:27:39;;;;;;;9.10;5.80;;;;;;;;;;21001377;28;20044;-56
2021/12/18 00:37:45;;;;;;;8.52;6.38;;;;;;;;;;21001243;28;20048;-57
2021/12/18 00:47:47;;;;;;;8.20;5.93;;;;;;;;;;20999812;28;20509;-56
2021/12/18 00:57:53;;;;;;;10.65;6.22;;;;;;;;;;20998074;28;20059;-57
2021/12/18 01:07:56;;;;;;;8.50;6.20;;;;;;;;;;20997595;28;20406;-55
2021/12/18 01:28:23;;;;;;;10.10;6.15;;;;;;;;;;20996544;28;20095;-57
2021/12/18 01:38:26;;;;;;;11.23;7.40;;;;;;;;;;20997085;28;20477;-57
2021/12/18 01:58:49;;;;;;;9.27;6.90;;;;;;;;;;20995462;28;20049;-57
2021/12/18 02:08:52;;;;;;;10.27;6.55;;;;;;;;;;20994950;28;20119;-57
2021/12/18 02:29:18;;;;;;;11.90;7.70;;;;;;;;;;21011042;28;20056;-57
2021/12/18 02:49:27;;;;;;;;;;;;;;;;;;21009971;28;20056;-57
2021/12/18 02:59:29;;;;;;;9.32;8.02;;;;;;;;;;21008468;28;19920;-56
2021/12/18 03:30:19;;;;;;;12.48;8.30;;;;;;;;;;21006351;28;20457;-56
2021/12/18 03:40:25;;;;;;;13.93;9.48;;;;;;;;;;21005768;28;20075;-59
2021/12/18 03:50:30;;;;;;;13.23;8.60;;;;;;;;;;21005673;28;20052;-55
2021/12/18 04:00:36;;;;;;;14.57;8.25;;;;;;;;;;21005226;28;20147;-56
2021/12/18 04:10:42;;;;;;;18.33;14.65;;;;;;;;;;21003427;28;20052;-57
2021/12/18 04:20:46;;;;;;;13.77;8.82;;;;;;;;;;21002815;28;20044;-57
2021/12/18 04:30:50;;;;;;;12.15;8.95;;;;;;;;;;21001529;28;20090;-56
2021/12/18 04:41:11;;;;;;;10.07;7.85;;;;;;;;;;21001179;28;20048;-57
2021/12/18 04:51:26;;;;;;;12.18;8.00;;;;;;;;;;20999299;28;20059;-57
2021/12/18 05:01:35;;;;;;;13.35;8.75;;;;;;;;;;20999060;28;20052;-56
2021/12/18 05:11:37;;;;;;;12.52;8.07;;;;;;;;;;20998446;28;20080;-57
2021/12/18 05:21:44;;;;;;;13.32;9.32;;;;;;;;;;20997448;28;20040;-57
2021/12/18 05:31:46;;;;;;;10.93;8.70;;;;;;;;;;20995828;28;20044;-58
2021/12/18 05:41:50;;;;;;;13.70;9.32;;;;;;;;;;20997812;28;20044;-58
2021/12/18 05:51:54;;;;;;;15.68;9.65;;;;;;;;;;20995602;28;20059;-56
2021/12/18 06:01:55;;;;;;;13.65;10.13;;;;;;;;;;20994903;28;20049;-57
2021/12/18 06:11:58;;;;;;;13.40;9.32;;;;;;;;;;20995228;28;20546;-56
2021/12/18 06:22:02;;;;;;;13.18;9.10;;;;;;;;;;20994565;28;20384;-57
2021/12/18 06:32:04;;;;;;;13.57;10.15;;;;;;;;;;20994398;28;20083;-57
2021/12/18 06:42:26;;;;;;;15.43;10.38;;;;;;;;;;20994864;28;20045;-56
2021/12/18 06:52:47;;;;;;;14.38;10.73;;;;;;;;;;20993973;28;20061;-55
2021/12/18 07:03:09;;;;;;;15.63;10.85;;;;;;;;;;20993624;28;20044;-56
2021/12/18 07:13:30;;;;;;;14.60;10.50;;;;;;;;;;21005260;28;20045;-56
2021/12/18 07:23:52;;;;;;;16.27;10.93;;;;;;;;;;21008331;28;20440;-54
2021/12/18 07:34:13;;;;;;;19.75;11.45;;;;;;;;;;21006361;28;20048;-55
2021/12/18 07:44:35;;;;;;;18.77;11.35;;;;;;;;;;21007280;28;20067;-57
2021/12/18 07:54:49;;;;;;;15.73;11.02;;;;;;;;;;21005077;28;20099;-57
2021/12/18 08:05:08;;;;;;;14.52;10.15;;;;;;;;;;21004560;28;20053;-57
2021/12/18 08:15:16;;;;;;;18.33;11.45;;;;;;;;;;21002801;28;20053;-58
2021/12/18 08:25:23;;;;;;;15.48;10.70;;;;;;;;;;21001131;28;20058;-57
2021/12/18 08:35:37;;;;;;;19.10;11.20;;;;;;;;;;21001000;28;20055;-58
2021/12/18 08:45:47;;;;;;;15.77;11.10;;;;;;;;;;21000657;28;20048;-57
2021/12/18 08:55:56;;;;;;;16.27;11.13;;;;;;;;;;20999107;28;20082;-57
2021/12/18 09:06:04;;;;;;;20.63;12.95;;;;;;;;;;20999062;28;20056;-56
2021/12/18 09:16:09;;;;;;;17.80;11.93;;;;;;;;;;20997359;28;20080;-57
2021/12/18 09:26:14;;;;;;;20.60;12.27;;;;;;;;;;20997167;28;20049;-56
2021/12/18 09:36:36;;;;;;;24.00;12.95;;;;;;;;;;20996663;28;20052;-56
2021/12/18 09:46:58;;;;;;;22.17;13.70;;;;;;;;;;20996380;28;20045;-56
2021/12/18 09:57:20;;;;;;;25.23;13.40;;;;;;;;;;20995631;28;20053;-57
2021/12/18 10:07:41;;;;;;;20.83;13.32;;;;;;;;;;20996318;28;20052;-56
2021/12/18 10:18:07;;;;;;;17.20;12.40;;;;;;;;;;20994473;28;20482;-58
2021/12/18 10:28:41;;;;;;;23.00;15.38;;;;;;;;;;20995196;28;20041;-56
2021/12/18 10:38:57;;;;;;;17.48;11.90;;;;;;;;;;20992835;28;20053;-58
2021/12/18 10:49:12;;;;;;;16.55;12.02;;;;;;;;;;21006683;28;20049;-58
2021/12/18 10:59:19;;;;;;;17.27;13.60;;;;;;;;;;21007929;28;20044;-59
2021/12/18 11:09:35;;;;;;;17.58;13.02;;;;;;;;;;21006406;28;20051;-58
2021/12/18 11:19:53;;;;;;;15.70;10.68;;;;;;;;;;21005942;28;20080;-55
2021/12/18 11:30:11;;;;;;;15.38;11.43;;;;;;;;;;21005655;28;20135;-60
2021/12/18 11:40:19;;;;;;;14.50;11.13;;;;;;;;;;21065238;28;20131;-65
2021/12/18 11:50:27;;;;;;;15.77;11.00;;;;;;;;;;21087852;28;20056;-63
2021/12/18 12:00:34;;;;;;;14.98;11.10;;;;;;;;;;21070143;28;20056;-63
2021/12/18 12:11:02;;;;;;;14.93;11.02;;;;;;;;;;21086868;28;20098;-60
2021/12/18 12:21:28;;;;;;;13.65;10.30;;;;;;;;;;21086504;28;20055;-72
2021/12/18 12:31:34;;;;;;;14.53;9.37;;;;;;;;;;21084143;28;20418;-62
2021/12/18 12:41:40;;;;;;;;;;;;;;;;;;21084504;28;20044;-66
2021/12/18 12:51:59;;;;;;;9.60;7.68;;;;;;;;;;21083836;28;19924;-67
2021/12/18 13:02:07;;;;;;;15.52;9.93;;;;;;;;;;21082382;28;20055;-65
2021/12/18 13:12:11;;;;;;;14.07;10.10;;;;;;;;;;21081574;28;20073;-66
2021/12/18 13:22:14;;;;;;;17.48;10.27;;;;;;;;;;21081469;28;20055;-65
2021/12/18 13:32:17;;;;;;;13.00;9.95;;;;;;;;;;21080830;28;20413;-69
2021/12/18 13:42:22;;;;;;;11.77;8.15;;;;;;;;;;21078872;28;20044;-61
2021/12/18 13:52:35;;;;;;;12.32;9.35;;;;;;;;;;21079155;28;20105;-60
2021/12/18 14:02:42;;;;;;;12.57;9.15;;;;;;;;;;21079559;28;20044;-61
2021/12/18 14:12:50;;;;;;;13.77;8.95;;;;;;;;;;21078546;28;20454;-61
2021/12/18 14:22:57;;;;;;;12.38;8.52;;;;;;;;;;21076661;28;20051;-62
2021/12/18 14:33:11;;;;;;;10.45;7.85;;;;;;;;;;21077585;28;20047;-62
2021/12/18 14:43:17;;;;;;;11.68;8.60;;;;;;;;;;21076936;28;20085;-62
2021/12/18 14:53:24;;;;;;;;;;;;;;;;;;21076223;28;20056;-60
2021/12/18 15:03:28;;;;;;;10.80;8.15;;;;;;;;;;21076165;28;20223;-61
2021/12/18 15:13:34;;;;;;;10.60;7.53;;;;;;;;;;21076042;28;20056;-61
2021/12/18 15:23:37;;;;;;;12.95;7.88;;;;;;;;;;21075638;28;20055;-61
2021/12/18 15:33:42;;;;;;;;;;;;;;;;;;21085792;28;20055;-60
2021/12/18 15:43:46;;;;;;;10.00;6.53;;;;;;;;;;21090041;28;19924;-59
2021/12/18 15:53:49;;;;;;;7.70;5.65;;;;;;;;;;21087872;28;20102;-61
2021/12/18 16:03:51;;;;;;;9.98;6.53;;;;;;;;;;21088042;28;20444;-57
2021/12/18 16:13:54;;;;;;;8.88;6.28;;;;;;;;;;21085904;28;20135;-57
2021/12/18 16:23:58;;;;;;;12.23;5.63;;;;;;;;;;21085366;28;20093;-55
2021/12/18 16:34:02;;;;;;;6.73;4.60;;;;;;;;;;21086087;28;20052;-62
2021/12/18 16:44:05;;;;;;;6.25;5.25;;;;;;;;;;21083928;28;20047;-60
2021/12/18 16:54:07;;;;;;;6.20;5.15;;;;;;;;;;21083554;28;20493;-59
2021/12/18 17:04:14;;;;;;;6.47;3.40;;;;;;;;;;21083129;28;20101;-58
2021/12/18 17:14:16;;;;;;;6.97;4.47;;;;;;;;;;21064032;28;20456;-60
2021/12/18 17:24:19;;;;;;;10.38;5.88;;;;;;;;;;21081211;28;20067;-60
2021/12/18 17:34:21;;;;;;;11.60;6.78;;;;;;;;;;21080395;28;20079;-60
2021/12/18 17:44:23;;;;;;;6.18;4.10;;;;;;;;;;21080083;28;20044;-61
2021/12/18 17:54:26;;;;;;;7.72;4.57;;;;;;;;;;21079254;28;20084;-60
2021/12/18 18:04:28;;;;;;;8.18;4.70;;;;;;;;;;21078320;28;20059;-60
2021/12/18 18:14:30;;;;;;;9.25;5.32;;;;;;;;;;21078178;28;20097;-61
2021/12/18 18:24:32;;;;;;;9.80;5.72;;;;;;;;;;21078238;28;20142;-60
2021/12/18 18:34:34;;;;;;;7.65;5.93;;;;;;;;;;21078042;28;20052;-56
2021/12/18 18:44:37;;;;;;;6.70;5.28;;;;;;;;;;21077363;28;20131;-61
2021/12/18 18:54:41;;;;;;;36.95;25.33;;;;;;;;;;21076261;28;20056;-61
2021/12/18 19:04:44;;;;;;;10.40;6.43;;;;;;;;;;21081492;28;20048;-62
2021/12/18 19:14:56;;;;;;;8.35;5.60;;;;;;;;;;21092043;28;20421;-61
2021/12/18 19:25:02;;;;;;;10.20;6.53;;;;;;;;;;21091418;28;20075;-55
2021/12/18 19:35:05;;;;;;;11.68;7.78;;;;;;;;;;21090653;28;20055;-61
2021/12/18 19:45:07;;;;;;;10.23;7.35;;;;;;;;;;21071759;28;20440;-60
2021/12/18 19:55:14;;;;;;;23.23;14.45;;;;;;;;;;21088842;28;20060;-61
2021/12/18 20:05:23;;;;;;;20.33;13.63;;;;;;;;;;21088159;28;20051;-57
2021/12/18 20:15:27;;;;;;;18.75;12.32;;;;;;;;;;21085751;28;20048;-60
2021/12/18 20:25:31;;;;;;;14.23;9.02;;;;;;;;;;21086603;28;20048;-62
2021/12/18 20:35:36;;;;;;;13.13;8.50;;;;;;;;;;21085775;28;20051;-61
2021/12/18 20:45:39;;;;;;;14.02;10.38;;;;;;;;;;21084459;28;20048;-62
2021/12/18 20:55:43;;;;;;;11.23;8.13;;;;;;;;;;21083311;28;20088;-59
2021/12/18 21:05:47;;;;;;;10.13;7.22;;;;;;;;;;21083273;28;20055;-59
2021/12/18 21:15:50;;;;;;;10.32;7.68;;;;;;;;;;21082255;28;20143;-60
2021/12/18 21:25:55;;;;;;;19.52;10.30;;;;;;;;;;21081476;28;20044;-59
2021/12/18 21:46:21;;;;;;;13.00;7.28;;;;;;;;;;21080463;28;20059;-60
2021/12/18 21:56:24;;;;;;;13.25;7.43;;;;;;;;;;21080438;28;20079;-59
2021/12/18 22:06:25;;;;;;;13.07;8.98;;;;;;;;;;21079951;28;20048;-56
2021/12/18 22:16:27;;;;;;;42.63;23.75;;;;;;;;;;21078722;28;20059;-63
2021/12/18 22:26:29;;;;;;;12.00;8.15;;;;;;;;;;21078762;28;20052;-59
2021/12/18 22:36:33;;;;;;;9.48;6.97;;;;;;;;;;21079220;28;20056;-60
2021/12/18 22:46:37;;;;;;;8.85;6.65;;;;;;;;;;21094447;28;20059;-64
2021/12/18 22:56:39;;;;;;;8.52;6.47;;;;;;;;;;21094459;28;20062;-56
2021/12/18 23:06:41;;;;;;;13.25;6.68;;;;;;;;;;21093280;28;20420;-61
2021/12/18 23:26:48;;;;;;;9.63;7.50;;;;;;;;;;21093045;28;20048;-60
2021/12/18 23:36:51;;;;;;;8.82;6.80;;;;;;;;;;21091303;28;20475;-61
2021/12/18 23:47:00;;;;;;;9.68;6.05;;;;;;;;;;21089298;28;20040;-61
2021/12/18 23:57:03;;;;;;;9.70;5.70;;;;;;;;;;21089492;28;20052;-56
